Weather observations for the past three days for
Philadelphia, Northeast Philadelphia Airport
| Date | Time (edt) | Wind (kph) | Vis. (km) | Weather | Sky Cond. | Temperature (ºC) | Relative Humidity | Wind Chill (°C) | Heat Index (°C) | Pressure | Precipitation (cm) | ||||||
|---|---|---|---|---|---|---|---|---|---|---|---|---|---|---|---|---|---|
| Air | Dwpt | 6 hour | altimeter (cm) | sea level (mb) | 1 hr | 3 hr | 6 hr | ||||||||||
| Max. | Min. | ||||||||||||||||
| 02 | 17:54 | NW 13 | 16.09 | Partly Cloudy | SCT080 | 15.6 | -1.1 | 32% | 75.84 | 1011.0 | |||||||
| 02 | 16:54 | N 19 | 16.09 | Mostly Cloudy | BKN070 | 15.6 | -1.1 | 32% | 75.82 | 1010.6 | |||||||
| 02 | 15:54 | NW 11 | 16.09 | A Few Clouds | FEW070 | 16.7 | 0.6 | 34% | 75.84 | 1011.0 | |||||||
| 02 | 14:54 | W 17 | 16.09 | Partly Cloudy | SCT070 | 15 | -0.6 | 35% | 75.92 | 1012.0 | |||||||
| 02 | 13:54 | N 24 G 35 | 16.09 | Partly Cloudy | SCT060 | 16.7 | 2.2 | 16.7 | 11.7 | 38% | 75.95 | 1012.3 | |||||
| 02 | 12:54 | NW 20 G 28 | 16.09 | Fair | CLR | 15 | 2.8 | 44% | 75.97 | 1012.8 | |||||||
| 02 | 11:54 | Vrbl 11 G 26 | 16.09 | Partly Cloudy | SCT036 | 13.9 | 3.9 | 51% | 76.02 | 1013.4 | |||||||
| 02 | 10:54 | NW 15 | 16.09 | Mostly Cloudy | FEW027 BKN080 | 12.8 | 5 | 59% | 76.02 | 1013.3 | |||||||
| 02 | 09:54 | NW 17 | 16.09 | Mostly Cloudy | BKN085 | 12.2 | 5.6 | 64% | 76 | 1013.2 | |||||||
| 02 | 08:54 | NW 15 | 16.09 | Mostly Cloudy | BKN023 BKN028 BKN080 | 12.2 | 6.7 | 69% | 76.02 | 1013.3 | |||||||
| 02 | 07:54 | W 11 | 16.09 | Mostly Cloudy | BKN080 BKN100 | 12.2 | 6.7 | 12.8 | 9.4 | 69% | 76 | 1013.0 | |||||
| 02 | 06:54 | W 9 | 16.09 | Mostly Cloudy | BKN031 | 10.6 | 6.7 | 77% | 75.97 | 1012.8 | |||||||
| 02 | 05:54 | W 6 | 16.09 | A Few Clouds | FEW080 | 10 | 6.1 | 77% | 75.95 | 1012.3 | |||||||
| 02 | 04:54 | NE 6 | 16.09 | Overcast | BKN075 OVC090 | 11.1 | 6.1 | 72% | 75.9 | 1011.9 | |||||||
| 02 | 03:54 | W 9 | 16.09 | Overcast | OVC047 | 12.2 | 6.7 | 69% | 75.92 | 1012.2 | |||||||
| 02 | 02:54 | SW 7 | 16.09 | Mostly Cloudy | BKN070 | 11.7 | 7.8 | 77% | 75.95 | 1012.4 | |||||||
| 02 | 01:54 | SW 7 | 16.09 | Mostly Cloudy | SCT080 BKN095 | 12.2 | 7.2 | 16.1 | 12.2 | 72% | 75.95 | 1012.4 | |||||
| 02 | 00:54 | S 7 | 16.09 | Mostly Cloudy | FEW070 BKN095 BKN110 | 12.2 | 5.6 | 64% | 75.97 | 1012.6 | |||||||
| 01 | 23:54 | Calm | 16.09 | Partly Cloudy | SCT120 | 12.8 | 5.6 | 62% | 75.95 | 1012.5 | |||||||
| 01 | 22:54 | Calm | 16.09 | Mostly Cloudy | BKN110 | 13.3 | 4.4 | 55% | 75.95 | 1012.5 | |||||||
| 01 | 21:54 | Vrbl 7 | 16.09 | A Few Clouds | FEW120 | 13.9 | 2.8 | 47% | 75.97 | 1012.6 | |||||||
| 01 | 20:54 | S 7 | 16.09 | Fair | CLR | 15 | 1.7 | 41% | 75.92 | 1012.1 | |||||||
| 01 | 19:54 | Vrbl 7 | 16.09 | Fair | CLR | 16.1 | 2.2 | 18.9 | 16.1 | 39% | 75.87 | 1011.5 | |||||
| 01 | 18:54 | SW 13 G 30 | 16.09 | Fair | CLR | 17.2 | 1.7 | 35% | 75.84 | 1011.0 | |||||||
| 01 | 17:54 | SW 20 G 31 | 16.09 | Fair | CLR | 17.8 | 1.1 | 33% | 75.84 | 1011.1 | |||||||
| 01 | 16:54 | SW 19 G 31 | 16.09 | Fair | CLR | 18.3 | 1.7 | 33% | 75.84 | 1011.2 | |||||||
| 01 | 15:54 | S 15 G 28 | 16.09 | Fair | CLR | 17.8 | 1.1 | 33% | 75.87 | 1011.3 | |||||||
| 01 | 14:54 | SW 9 | 16.09 | Fair | CLR | 17.8 | 1.1 | 33% | 75.92 | 1012.2 | |||||||
| 01 | 13:54 | N 11 | 16.09 | Fair | CLR | 17.2 | 1.7 | 17.2 | 10 | 35% | 75.95 | 1012.5 | |||||
| 01 | 12:54 | Calm | 16.09 | Fair | CLR | 16.7 | 2.8 | 40% | 76 | 1013.1 | |||||||
| 01 | 11:54 | Calm | 16.09 | Fair | CLR | 15 | 2.2 | 42% | 76.07 | 1014.0 | |||||||
| 01 | 10:54 | Vrbl 7 G 30 | 16.09 | A Few Clouds | FEW044 | 13.9 | 2.8 | 47% | 76.1 | 1014.6 | |||||||
| 01 | 09:54 | N 13 | 16.09 | A Few Clouds | FEW038 | 12.8 | 3.9 | 55% | 76.12 | 1014.7 | |||||||
| 01 | 08:54 | NW 15 | 16.09 | Fair | CLR | 11.7 | 3.9 | 59% | 76.12 | 1014.7 | |||||||
| 01 | 07:54 | NW 13 | 16.09 | Fair | CLR | 10 | 4.4 | 10.6 | 6.7 | 68% | 8 | 76.12 | 1014.7 | ||||
| 01 | 06:54 | NW 13 | 16.09 | Fair | CLR | 7.8 | 3.9 | 77% | 6 | 76.1 | 1014.5 | ||||||
| 01 | 05:54 | NW 11 | 16.09 | Fair | CLR | 7.2 | 3.3 | 77% | 5 | 76.07 | 1014.0 | ||||||
| 01 | 04:54 | NW 13 | 16.09 | Fair | CLR | 7.8 | 4.4 | 79% | 6 | 76.02 | 1013.5 | ||||||
| 01 | 03:54 | NW 11 | 16.09 | Fair | CLR | 8.9 | 5 | 77% | 7 | 76 | 1013.1 | ||||||
| 01 | 02:54 | NW 13 | 16.09 | Fair | CLR | 9.4 | 5.6 | 77% | 8 | 75.97 | 1012.8 | ||||||
| 01 | 01:54 | NW 13 | 16.09 | Mostly Cloudy | BKN060 | 10.6 | 5 | 13.9 | 10.6 | 69% | 75.95 | 1012.6 | |||||
| 01 | 00:54 | NW 19 | 16.09 | Mostly Cloudy | BKN065 | 11.1 | 5.6 | 69% | 75.92 | 1012.2 | |||||||
| 30 | 23:54 | NW 13 | 16.09 | Overcast | OVC050 | 11.7 | 7.2 | 74% | 75.92 | 1011.9 | |||||||
| 30 | 22:54 | NW 13 G 28 | 16.09 | Fair | CLR | 11.1 | 7.2 | 77% | 75.9 | 1011.8 | |||||||
| 30 | 21:54 | NW 19 G 28 | 16.09 | Mostly Cloudy | BKN050 | 12.2 | 7.8 | 75% | 75.9 | 1011.8 | |||||||
| 30 | 20:54 | NW 9 | 16.09 | Partly Cloudy | FEW075 SCT110 | 12.2 | 8.3 | 77% | 75.79 | 1010.5 | |||||||
| 30 | 19:54 | W 17 | 16.09 | Overcast | BKN060 OVC075 | 13.9 | 7.2 | 18.3 | 13.9 | 64% | 75.74 | 1009.6 | |||||
| 30 | 18:54 | NW 11 | 16.09 | Mostly Cloudy | SCT060 BKN100 | 16.7 | 7.2 | 54% | 75.64 | 1008.3 | |||||||
| 30 | 17:54 | NW 11 | 16.09 | A Few Clouds | FEW055 FEW090 | 17.8 | 6.1 | 46% | 75.62 | 1008.1 | |||||||
| 30 | 16:54 | NW 17 | 16.09 | Mostly Cloudy | BKN080 | 17.8 | 7.2 | 50% | 75.59 | 1007.6 | |||||||
| 30 | 15:54 | NW 19 | 16.09 | Mostly Cloudy | BKN070 | 18.3 | 8.9 | 54% | 75.57 | 1007.2 | |||||||
| 30 | 14:54 | NW 20 | 16.09 | Mostly Cloudy | BKN070 | 16.7 | 8.3 | 58% | 75.59 | 1007.5 | |||||||
| 30 | 13:54 | NW 20 | 16.09 | Overcast | FEW030 SCT043 OVC055 | 17.8 | 9.4 | 17.8 | 10.6 | 58% | 75.59 | 1007.7 | |||||
| 30 | 12:54 | NW 17 | 16.09 | Overcast | FEW022 OVC033 | 14.4 | 8.9 | 70% | 75.62 | 1008.0 | |||||||
| 30 | 11:54 | NW 13 | 16.09 | Overcast | OVC017 | 13.3 | 10 | 81% | 75.62 | 1008.2 | |||||||
| 30 | 10:54 | W 13 | 16.09 | Overcast | OVC014 | 12.8 | 9.4 | 80% | 75.67 | 1008.8 | |||||||
| 30 | 09:54 | W 7 | 14.48 | Overcast | OVC008 | 11.7 | 9.4 | 86% | 75.62 | 1008.1 | |||||||
| 30 | 08:54 | NW 7 | 11.27 | Overcast | OVC007 | 11.1 | 9.4 | 89% | 75.62 | 1008.1 | |||||||
| 30 | 07:54 | Calm | 14.48 | Overcast | OVC007 | 10.6 | 8.9 | 10.6 | 9.4 | 89% | 75.62 | 1008.1 | |||||
| 30 | 06:54 | Calm | 16.09 | Overcast | OVC013 | 10 | 8.3 | 89% | 75.62 | 1008.2 | |||||||
| 30 | 05:54 | Calm | 16.09 | Overcast | BKN007 OVC019 | 9.4 | 8.3 | 93% | 75.62 | 1008.0 | |||||||
| 30 | 04:54 | E 7 | 16.09 | Overcast | BKN007 OVC020 | 9.4 | 8.3 | 93% | 9 | 75.59 | 1007.6 | ||||||
| 30 | 03:54 | E 7 | 16.09 | Overcast | BKN006 BKN024 OVC036 | 9.4 | 8.3 | 93% | 9 | 75.62 | 1007.9 | ||||||
| 30 | 02:54 | E 7 | 16.09 | Overcast | SCT005 OVC026 | 9.4 | 8.3 | 93% | 9 | 75.64 | 1008.4 | ||||||
| 30 | 01:54 | SE 6 | 16.09 | Overcast | OVC025 | 9.4 | 8.3 | 12.2 | 9.4 | 93% | 75.69 | 1008.9 | 0.1 | 0.61 | |||
| 30 | 00:54 | Calm | 8.05 | Light Rain Fog/Mist | SCT013 SCT024 BKN032 | 9.4 | 8.3 | 93% | 75.74 | 1009.8 | 0.18 | ||||||
| 29 | 23:54 | SE 11 | 14.48 | Light Rain | SCT011 OVC036 | 10 | 8.3 | 89% | 9 | 75.74 | 1009.6 | 0.18 | |||||
| 29 | 22:54 | Calm | 16.09 | Light Rain | OVC034 | 10 | 8.9 | 93% | 75.77 | 1010.1 | 0.03 | 0.15 | |||||
| 29 | 21:54 | SE 7 | 12.87 | Light Rain | BKN031 OVC080 | 10 | 8.3 | 89% | 9 | 75.82 | 1010.8 | 0.1 | |||||
| 29 | 20:54 | S 6 | 8.05 | Light Rain | FEW040 BKN065 OVC080 | 11.1 | 7.8 | 80% | 75.79 | 1010.6 | 0.03 | ||||||
| 29 | 19:54 | SE 7 | 16.09 | NULL | NULL | 11.7 | 8.3 | 19.4 | 11.7 | 80% | 75.82 | 1010.6 | 0.23 | 0.25 | |||
| 29 | 18:54 | SE 22 | 16.09 | Light Rain | BKN075 OVC090 | 13.9 | 6.1 | 60% | 75.79 | 1010.4 | 0.03 | ||||||
| Date | Time (edt) | Wind (kph) | Vis. (km) | Weather | Sky Cond. | Air | Dwpt | Max. | Min. | Relative Humidity | Wind Chill (°C) | Heat Index (°C) | altimeter (cm) | sea level (mb) | 1 hr | 3 hr | 6 hr |
| 6 hour | |||||||||||||||||
| Temperature (ºC) | Pressure | Precipitation (cm) | |||||||||||||||